Time;durP1;ratioP1;P1;durP2;ratioP2;P2;SDS_P1;SDS_P2;PMS_P1;PMS_P2;Temp;Humidity;BMP_temperature;BMP_pressure;BME280_temperature;BME280_humidity;BME280_pressure;Samples;Min_cycle;Max_cycle;Signal;HPM_P1;HPM_P2
2021/05/16 00:00:34;;;;;;;;;;;8.40;99.90;;;6.75;97.66;94798.59;10311455;28;1990;-86
2021/05/16 00:05:38;;;;;;;;;;;8.50;99.90;;;6.73;97.13;94800.72;10316294;28;2093;-86
2021/05/16 00:10:41;;;;;;;;;;;7.80;99.90;;;6.66;96.88;94805.56;10298721;28;1744;-87
2021/05/16 00:15:45;;;;;;;;;;;7.80;99.90;;;6.64;96.44;94805.84;10318292;28;2116;-86
2021/05/16 00:20:49;;;;;;;;;;;7.60;99.90;;;6.58;96.67;94814.13;10293628;28;2138;-86
2021/05/16 00:25:52;;;;;;;;;;;8.40;99.90;;;6.58;96.28;94824.81;10291716;28;1865;-87
2021/05/16 00:30:57;;;;;;;;;;;7.60;99.90;;;6.55;95.91;94828.00;10304171;28;1757;-87
2021/05/16 00:36:00;;;;;;;;;;;7.50;99.90;;;6.45;96.38;94821.66;10316200;28;1852;-87
2021/05/16 00:41:03;;;;;;;;;;;7.50;99.90;;;6.45;96.37;94818.19;10310354;28;2094;-87
2021/05/16 00:46:09;;;;;;;;;;;7.70;99.90;;;6.42;95.49;94821.38;10304503;28;1860;-85
2021/05/16 00:51:12;;;;;;;;;;;8.10;99.90;;;6.34;95.90;94814.72;10315856;28;1512;-87
2021/05/16 00:56:15;;;;;;;;;;;7.40;99.90;;;6.30;96.03;94816.34;10321729;28;2276;-87
2021/05/16 01:01:20;;;;;;;;;;;8.20;99.90;;;6.35;95.30;94816.31;10299698;28;2161;-87
2021/05/16 01:06:23;;;;;;;;;;;7.30;99.90;;;6.33;95.10;94817.66;10290574;28;2170;-86
2021/05/16 01:11:28;;;;;;;;;;;7.40;99.90;;;6.31;93.99;94820.63;10301741;28;2044;-86
2021/05/16 01:16:31;;;;;;;;;;;7.20;99.90;;;6.28;94.29;94831.81;10308968;28;1506;-87
2021/05/16 01:21:34;;;;;;;;;;;7.80;99.90;;;6.25;93.75;94824.34;10313288;28;2241;-86
2021/05/16 01:26:37;;;;;;;;;;;7.60;99.90;;;6.21;93.86;94826.75;10320372;28;2240;-86
2021/05/16 01:31:40;;;;;;;;;;;7.60;99.90;;;6.19;93.63;94828.09;10304807;28;1626;-86
2021/05/16 01:36:43;;;;;;;;;;;7.20;99.90;;;6.21;93.78;94825.94;10316933;28;2156;-85
2021/05/16 01:41:46;;;;;;;;;;;7.60;99.90;;;6.14;93.67;94825.44;10321346;28;2117;-87
2021/05/16 01:46:50;;;;;;;;;;;7.90;99.90;;;6.12;93.57;94823.03;10298498;28;1983;-86
2021/05/16 01:51:53;;;;;;;;;;;7.20;99.90;;;6.05;93.90;94822.50;10322253;28;2195;-86
2021/05/16 01:56:57;;;;;;;;;;;7.10;99.90;;;6.08;93.55;94816.63;10300209;28;2242;-87
2021/05/16 02:02:02;;;;;;;;;;;7.20;99.90;;;5.98;93.80;94808.66;10297361;28;2223;-86
2021/05/16 02:07:06;;;;;;;;;;;7.90;99.90;;;5.89;93.63;94808.34;10298732;28;2022;-87
2021/05/16 02:12:09;;;;;;;;;;;7.00;99.90;;;5.88;94.13;94812.06;10300652;28;2188;-86
2021/05/16 02:17:12;;;;;;;;;;;7.00;99.90;;;5.99;93.97;94812.91;10298287;28;2047;-86
2021/05/16 02:22:15;;;;;;;;;;;7.20;99.90;;;5.86;93.98;94811.56;10294974;28;2221;-86
2021/05/16 02:27:18;;;;;;;;;;;7.50;99.90;;;5.85;94.21;94809.13;10281816;28;2276;-86
2021/05/16 02:32:21;;;;;;;;;;;7.50;99.90;;;5.91;93.28;94814.22;10294227;28;2140;-87
2021/05/16 02:37:24;;;;;;;;;;;7.50;99.90;;;5.93;92.85;94812.09;10293684;28;2047;-86
2021/05/16 02:42:27;;;;;;;;;;;7.90;99.90;;;5.90;92.39;94817.94;10295912;28;2223;-86
2021/05/16 02:47:30;;;;;;;;;;;7.10;99.90;;;5.91;92.15;94810.75;10318489;28;1969;-86
2021/05/16 02:52:33;;;;;;;;;;;7.50;99.90;;;5.92;92.02;94813.19;10311321;28;2165;-85
2021/05/16 02:57:36;;;;;;;;;;;7.50;99.90;;;5.92;91.03;94809.72;10289147;28;2192;-85
2021/05/16 03:02:40;;;;;;;;;;;7.20;99.90;;;5.86;91.44;94814.22;10285500;28;2205;-85
2021/05/16 03:07:43;;;;;;;;;;;7.00;99.90;;;5.86;91.68;94818.75;10305832;28;1375;-84
2021/05/16 03:12:46;;;;;;;;;;;6.90;99.90;;;5.93;91.57;94819.31;10307987;28;1819;-86
2021/05/16 03:17:50;;;;;;;;;;;6.90;99.90;;;5.92;90.92;94815.84;10304830;28;2228;-86
2021/05/16 03:22:53;;;;;;;;;;;6.90;99.90;;;5.99;90.13;94817.44;10326065;28;2288;-85
2021/05/16 03:27:56;;;;;;;;;;;7.10;99.90;;;6.10;89.62;94832.38;10310155;28;2253;-84
2021/05/16 03:32:59;;;;;;;;;;;7.70;99.90;;;6.23;89.37;94829.16;10299573;28;1781;-84
2021/05/16 03:38:02;;;;;;;;;;;7.80;99.90;;;6.30;89.26;94828.88;10314419;28;2316;-85
2021/05/16 03:43:07;;;;;;;;;;;7.20;99.90;;;6.47;89.01;94824.03;10289919;28;2163;-86
2021/05/16 03:48:10;;;;;;;;;;;7.80;99.90;;;6.67;88.27;94828.53;10305044;28;1947;-86
2021/05/16 03:53:13;;;;;;;;;;;8.00;99.90;;;6.90;86.63;94827.91;10301904;28;2225;-86
2021/05/16 03:58:16;;;;;;;;;;;7.60;99.90;;;7.13;86.19;94812.34;10317991;28;2170;-86
2021/05/16 04:03:19;;;;;;;;;;;8.40;99.90;;;7.33;85.68;94822.91;10308442;28;1976;-86
2021/05/16 04:08:22;;;;;;;;;;;8.00;99.90;;;7.49;84.63;94808.34;10300090;28;2011;-87
2021/05/16 04:13:25;;;;;;;;;;;9.00;99.90;;;7.56;83.85;94805.38;10307804;28;2164;-84
2021/05/16 04:18:31;;;;;;;;;;;8.70;99.90;;;7.66;84.17;94816.00;10314178;28;2174;-84
2021/05/16 04:23:35;;;;;;;;;;;8.40;99.90;;;7.76;83.24;94818.63;10307113;28;2233;-86
2021/05/16 04:28:38;;;;;;;;;;;9.00;99.90;;;7.63;83.73;94824.59;10311416;28;2133;-86
2021/05/16 04:33:41;;;;;;;;;;;8.60;99.90;;;7.45;85.17;94834.06;10305763;28;2179;-85
2021/05/16 04:38:46;;;;;;;;;;;9.00;99.90;;;7.36;84.45;94833.03;10323227;28;2024;-85
2021/05/16 04:43:50;;;;;;;;;;;8.80;99.90;;;7.52;84.58;94831.09;10312198;28;2111;-86
2021/05/16 04:48:53;;;;;;;;;;;8.90;99.90;;;7.97;82.49;94829.97;10326752;28;2035;-86
2021/05/16 04:53:56;;;;;;;;;;;9.10;99.90;;;8.28;81.62;94827.84;10299632;28;2130;-86
2021/05/16 04:59:00;;;;;;;;;;;9.20;99.90;;;8.60;79.38;94840.69;10323883;28;2171;-85
2021/05/16 05:04:03;;;;;;;;;;;9.40;99.90;;;8.90;78.12;94833.38;10311097;28;2023;-86
2021/05/16 05:09:06;;;;;;;;;;;9.50;99.90;;;9.28;77.50;94828.09;10295365;28;2146;-85
2021/05/16 05:14:09;;;;;;;;;;;9.80;99.90;;;9.61;76.77;94834.38;10307770;28;2110;-86
2021/05/16 05:19:12;;;;;;;;;;;10.10;99.90;;;9.71;76.36;94828.84;10293670;28;1997;-86
2021/05/16 05:24:15;;;;;;;;;;;10.40;99.90;;;9.91;75.47;94828.53;10305774;28;2059;-84
2021/05/16 05:29:18;;;;;;;;;;;10.50;99.90;;;9.91;74.11;94811.63;10311256;28;2181;-84
2021/05/16 05:34:24;;;;;;;;;;;10.70;99.90;;;10.44;73.27;94814.84;10311139;28;1965;-83
2021/05/16 05:39:28;;;;;;;;;;;10.90;99.90;;;10.98;69.62;94804.41;10304191;28;2115;-85
2021/05/16 05:44:31;;;;;;;;;;;11.40;99.90;;;11.13;68.63;94816.75;10307350;28;2071;-84
2021/05/16 05:49:34;;;;;;;;;;;11.70;99.90;;;10.71;69.68;94822.13;10307783;28;2151;-87
2021/05/16 05:54:38;;;;;;;;;;;11.60;99.90;;;10.34;72.43;94819.56;10317422;28;2132;-85
2021/05/16 05:59:42;;;;;;;;;;;11.30;99.90;;;10.28;71.95;94826.91;10302957;28;2193;-83
2021/05/16 06:04:45;;;;;;;;;;;11.10;99.90;;;10.36;71.27;94825.44;10313060;28;2113;-86
2021/05/16 06:09:48;;;;;;;;;;;11.10;99.90;;;10.38;71.63;94834.81;10301827;28;2179;-85
2021/05/16 06:14:53;;;;;;;;;;;11.10;99.90;;;11.03;68.86;94825.84;10315544;28;1926;-86
2021/05/16 06:19:56;;;;;;;;;;;11.40;99.90;;;12.04;65.50;94816.69;10302247;28;2422;-86
2021/05/16 06:24:59;;;;;;;;;;;12.40;99.90;;;11.72;66.48;94826.53;10302164;28;1992;-85
2021/05/16 06:30:02;;;;;;;;;;;12.50;99.90;;;11.61;65.95;94834.03;10306193;28;2164;-86
2021/05/16 06:35:06;;;;;;;;;;;12.60;99.90;;;11.42;68.94;94843.34;10322922;28;1831;-85
2021/05/16 06:40:08;;;;;;;;;;;12.30;99.90;;;11.81;65.11;94840.88;10312425;28;2207;-85
2021/05/16 06:45:11;;;;;;;;;;;12.40;99.90;;;12.22;65.20;94823.78;10307114;28;1716;-84
2021/05/16 06:50:15;;;;;;;;;;;12.50;99.90;;;12.26;64.28;94824.75;10296511;28;2075;-86
2021/05/16 06:55:18;;;;;;;;;;;13.00;99.90;;;12.42;63.66;94841.34;10291013;28;1923;-85
2021/05/16 07:00:20;;;;;;;;;;;13.10;99.90;;;12.78;62.19;94840.44;10292357;28;2151;-86
2021/05/16 07:05:23;;;;;;;;;;;13.20;99.90;;;13.15;60.51;94831.06;10320357;28;2162;-85
2021/05/16 07:10:26;;;;;;;;;;;13.50;99.90;;;13.36;59.03;94821.34;10285613;28;2189;-85
2021/05/16 07:15:29;;;;;;;;;;;14.60;99.90;;;13.12;59.66;94826.31;10302126;28;2148;-82
2021/05/16 07:20:32;;;;;;;;;;;14.00;99.90;;;13.92;55.41;94808.84;10291151;28;2003;-85
2021/05/16 07:25:34;;;;;;;;;;;14.40;99.90;;;14.59;54.34;94815.66;10285103;28;1927;-83
2021/05/16 07:30:37;;;;;;;;;;;15.30;99.90;;;14.37;55.03;94822.00;10308297;28;2101;-81
2021/05/16 07:35:40;;;;;;;;;;;15.20;99.90;;;14.73;53.81;94815.44;10291267;28;2201;-81
2021/05/16 07:40:43;;;;;;;;;;;15.30;99.90;;;15.83;49.48;94800.88;10312845;28;2105;-79
2021/05/16 07:45:46;;;;;;;;;;;16.20;99.90;;;15.57;49.43;94803.75;10299117;28;2036;-83
2021/05/16 07:50:48;;;;;;;;;;;16.00;99.90;;;14.94;52.01;94810.13;10296008;28;2124;-84
2021/05/16 07:55:51;;;;;;;;;;;15.90;99.90;;;15.51;50.86;94805.06;10289756;28;2274;-83
2021/05/16 08:00:54;;;;;;;;;;;16.20;99.90;;;16.43;49.70;94796.09;10298734;28;2148;-82
2021/05/16 08:05:57;;;;;;;;;;;16.90;99.90;;;16.05;49.04;94797.06;10295910;28;1488;-84
2021/05/16 08:11:00;;;;;;;;;;;17.00;99.90;;;15.21;49.23;94806.19;10310821;28;1871;-83
2021/05/16 08:16:03;;;;;;;;;;;16.40;99.90;;;15.23;50.28;94807.44;10296307;28;2100;-83
2021/05/16 08:21:06;;;;;;;;;;;16.00;99.90;;;15.45;48.93;94798.25;10311642;28;2128;-82
2021/05/16 08:26:08;;;;;;;;;;;16.20;99.90;;;15.87;47.52;94799.09;10301318;28;2123;-84
2021/05/16 08:31:10;;;;;;;;;;;16.40;99.90;;;16.76;45.40;94793.38;10293189;28;2252;-84
2021/05/16 08:36:13;;;;;;;;;;;17.30;99.90;;;16.80;44.59;94793.50;10288953;28;2262;-83
2021/05/16 08:41:16;;;;;;;;;;;17.80;99.90;;;16.45;44.40;94786.47;10287695;28;3331;-81
2021/05/16 08:46:18;;;;;;;;;;;17.60;97.70;;;16.33;45.18;94793.78;10296724;28;2760;-82
2021/05/16 08:51:21;;;;;;;;;;;17.30;98.60;;;16.43;44.35;94793.38;10280171;28;2292;-83
2021/05/16 08:56:24;;;;;;;;;;;17.30;97.20;;;15.81;46.43;94805.06;10284186;28;2711;-84
2021/05/16 09:01:27;;;;;;;;;;;16.80;97.80;;;15.62;45.79;94800.88;10297046;28;2452;-84
2021/05/16 09:06:33;;;;;;;;;;;16.50;97.40;;;15.70;45.65;94801.16;10274413;28;2271;-82
2021/05/16 09:11:35;;;;;;;;;;;16.60;96.60;;;16.64;44.33;94794.09;10294853;28;2190;-81
2021/05/16 09:16:38;;;;;;;;;;;16.90;97.70;;;17.37;40.96;94793.44;10293123;28;2429;-82
2021/05/16 09:21:40;;;;;;;;;;;17.90;92.80;;;16.61;41.97;94794.78;10282774;28;2454;-84
2021/05/16 09:26:42;;;;;;;;;;;17.70;91.00;;;16.92;41.93;94798.94;10288485;28;2277;-80
2021/05/16 09:31:45;;;;;;;;;;;17.70;91.10;;;17.37;42.41;94787.19;10271248;28;2214;-84
2021/05/16 09:36:47;;;;;;;;;;;18.00;91.40;;;17.75;39.51;94786.81;10282743;28;2398;-87
2021/05/16 09:41:50;;;;;;;;;;;18.30;87.80;;;16.95;41.82;94771.91;10280506;28;2397;-86
2021/05/16 09:46:52;;;;;;;;;;;18.00;87.70;;;17.04;41.04;94779.94;10282929;28;2292;-86
2021/05/16 09:51:55;;;;;;;;;;;17.90;87.30;;;17.67;39.71;94777.66;10303078;28;2383;-85
2021/05/16 09:56:58;;;;;;;;;;;18.40;86.00;;;17.89;39.95;94773.69;10312633;28;2237;-83
2021/05/16 10:02:00;;;;;;;;;;;18.80;84.30;;;17.08;40.73;94763.78;10293736;28;2301;-85
2021/05/16 10:07:05;;;;;;;;;;;18.40;83.70;;;16.89;40.58;94756.97;10294152;28;2228;-84
2021/05/16 10:12:07;;;;;;;;;;;18.00;83.00;;;17.42;40.50;94763.28;10294224;28;2596;-87
2021/05/16 10:17:10;;;;;;;;;;;18.20;83.30;;;17.32;40.97;94761.06;10307517;28;2216;-86
2021/05/16 10:22:15;;;;;;;;;;;18.30;82.80;;;17.50;38.03;94751.53;10287708;28;2474;-82
2021/05/16 10:27:18;;;;;;;;;;;18.20;80.50;;;18.37;38.27;94729.16;10298689;28;2237;-83
2021/05/16 10:32:20;;;;;;;;;;;18.80;81.00;;;18.60;34.69;94717.72;10304018;28;2188;-84
2021/05/16 10:37:23;;;;;;;;;;;19.30;92.40;;;17.99;35.86;94720.72;10314479;28;2181;-86
2021/05/16 10:42:25;;;;;;;;;;;19.10;99.30;;;18.74;36.18;94720.03;10283125;28;2380;-86
2021/05/16 10:47:29;;;;;;;;;;;19.40;99.90;;;18.42;35.38;94711.78;10300949;28;2306;-83
2021/05/16 10:52:31;;;;;;;;;;;19.40;99.90;;;17.88;37.22;94706.03;10293084;28;2190;-87
2021/05/16 10:57:34;;;;;;;;;;;19.00;99.90;;;17.79;37.89;94701.53;10287452;28;2553;-87
2021/05/16 11:02:37;;;;;;;;;;;;;;;18.06;36.59;94693.72;10309196;28;2319;-86
2021/05/16 11:07:40;;;;;;;;;;;19.00;99.90;;;18.16;36.81;94678.84;10286833;28;2210;-84
2021/05/16 11:12:42;;;;;;;;;;;19.10;99.90;;;18.31;36.25;94672.63;10311909;28;2466;-85
2021/05/16 11:17:45;;;;;;;;;;;;;;;18.20;35.15;94660.72;10299829;28;2288;-86
2021/05/16 11:22:49;;;;;;;;;;;;;;;18.42;36.35;94667.47;10319427;28;2040;-84
2021/05/16 11:27:52;;;;;;;;;;;;;;;19.16;33.51;94649.44;10317175;28;1902;-85
2021/05/16 11:32:55;;;;;;;;;;;;;;;19.13;31.68;94655.59;10297630;28;2201;-84
2021/05/16 11:37:58;;;;;;;;;;;;;;;19.42;32.58;94641.47;10309423;28;1853;-83
2021/05/16 11:43:01;;;;;;;;;;;;;;;19.68;31.82;94634.63;10300762;28;2205;-84
2021/05/16 11:48:04;;;;;;;;;;;20.40;66.10;;;19.92;31.27;94623.41;10325511;28;2097;-85
2021/05/16 11:53:06;;;;;;;;;;;20.80;65.20;;;19.51;31.63;94618.66;10331995;28;2290;-84
2021/05/16 11:58:11;;;;;;;;;;;20.70;64.50;;;18.80;32.47;94624.13;10307969;28;2077;-83
2021/05/16 12:03:13;;;;;;;;;;;20.20;63.90;;;19.32;32.04;94622.94;10301522;28;2148;-85
2021/05/16 12:08:16;;;;;;;;;;;20.00;64.80;;;19.38;31.96;94616.06;10299400;28;2073;-84
2021/05/16 12:13:20;;;;;;;;;;;20.20;64.40;;;19.99;30.61;94584.56;10332057;28;2079;-84
2021/05/16 12:18:22;;;;;;;;;;;20.40;63.50;;;20.58;28.39;94571.56;10314522;28;1993;-85
2021/05/16 12:23:25;;;;;;;;;;;21.10;60.70;;;19.63;30.59;94588.56;10323302;28;2018;-85
2021/05/16 12:28:27;;;;;;;;;;;21.00;60.80;;;19.91;30.20;94594.56;10324405;28;2125;-86
2021/05/16 12:33:29;;;;;;;;;;;21.00;60.50;;;20.10;29.20;94601.91;10296314;28;2660;-84
2021/05/16 12:38:32;;;;;;;;;;;21.00;59.50;;;19.49;29.94;94590.97;10294860;28;2200;-84
2021/05/16 12:43:34;;;;;;;;;;;20.80;59.10;;;19.99;30.09;94595.47;10301183;28;2171;-81
2021/05/16 12:48:37;;;;;;;;;;;20.60;60.50;;;20.82;29.88;94567.63;10302283;28;2128;-83
2021/05/16 12:53:41;;;;;;;;;;;21.10;61.00;;;20.11;28.72;94561.78;10294411;28;2215;-81
2021/05/16 12:58:52;;;;;;;;;;;21.20;58.10;;;20.05;30.26;94557.78;10309204;28;2121;-86
2021/05/16 13:03:55;;;;;;;;;;;21.00;59.30;;;20.14;30.19;94563.78;10338504;28;2510;-86
2021/05/16 13:08:57;;;;;;;;;;;20.90;59.60;;;20.02;29.58;94556.56;10336842;28;2476;-86
2021/05/16 13:14:01;;;;;;;;;;;21.00;58.60;;;19.56;30.61;94555.69;10341009;28;2494;-85
2021/05/16 13:19:03;;;;;;;;;;;20.70;59.20;;;19.81;29.68;94546.06;10326552;28;2105;-83
2021/05/16 13:24:07;;;;;;;;;;;20.60;58.70;;;20.15;29.44;94532.63;10297392;28;2204;-83
2021/05/16 13:29:10;;;;;;;;;;;20.80;58.40;;;20.45;28.85;94530.81;10289284;28;2112;-85
2021/05/16 13:34:12;;;;;;;;;;;21.20;57.70;;;20.47;28.29;94525.75;10295984;28;2442;-86
2021/05/16 13:39:15;;;;;;;;;;;21.40;56.60;;;19.50;29.77;94541.56;10313779;28;2183;-86
2021/05/16 13:44:18;;;;;;;;;;;20.90;57.00;;;19.79;30.00;94532.00;10305601;28;2153;-84
2021/05/16 13:49:20;;;;;;;;;;;20.60;58.10;;;19.84;29.80;94528.97;10301476;28;2644;-82
2021/05/16 13:54:25;;;;;;;;;;;20.70;57.80;;;19.49;30.48;94529.09;10315928;28;2567;-86
2021/05/16 13:59:31;;;;;;;;;;;20.60;57.80;;;19.10;31.52;94533.75;10327495;28;2269;-86
2021/05/16 14:04:34;;;;;;;;;;;20.20;58.70;;;19.08;31.74;94541.47;10320112;28;1944;-86
2021/05/16 14:09:36;;;;;;;;;;;19.90;59.50;;;18.53;32.48;94555.03;10322962;28;2233;-85
2021/05/16 14:14:39;;;;;;;;;;;19.70;59.70;;;18.06;33.03;94563.19;10332177;28;1833;-85
2021/05/16 14:19:42;;;;;;;;;;;19.30;60.10;;;18.16;33.53;94549.09;10303240;28;2104;-83
2021/05/16 14:24:45;;;;;;;;;;;19.10;61.00;;;18.54;32.47;94536.78;10317826;28;1981;-84
2021/05/16 14:29:47;;;;;;;;;;;19.30;60.60;;;19.33;32.17;94515.53;10299434;28;2058;-87
2021/05/16 14:34:50;;;;;;;;;;;19.80;61.10;;;19.27;32.60;94505.28;10326703;28;2025;-86
2021/05/16 14:39:52;;;;;;;;;;;20.10;61.00;;;19.76;31.10;94491.81;10302946;28;1907;-85
2021/05/16 14:44:59;;;;;;;;;;;20.30;59.70;;;20.24;31.31;94470.41;10314035;28;2081;-80
2021/05/16 14:50:01;;;;;;;;;;;20.70;60.50;;;20.20;30.30;94462.16;10298274;28;2050;-82
2021/05/16 14:55:03;;;;;;;;;;;20.90;58.60;;;20.12;32.62;94457.75;10325547;28;1899;-81
2021/05/16 15:00:06;;;;;;;;;;;20.90;60.60;;;19.93;32.32;94468.75;10292211;28;2304;-82
2021/05/16 15:05:08;;;;;;;;;;;20.80;60.00;;;19.65;33.00;94436.31;10298170;28;2026;-81
2021/05/16 15:10:11;;;;;;;;;;;20.60;60.00;;;19.45;31.50;94433.63;10291520;28;1946;-80
2021/05/16 15:15:14;;;;;;;;;;;20.40;59.00;;;19.70;32.75;94425.13;10291148;28;1848;-83
2021/05/16 15:20:22;;;;;;;;;;;20.50;60.80;;;19.30;32.59;94423.63;10296728;28;1717;-82
2021/05/16 15:25:25;;;;;;;;;;;20.30;60.40;;;18.53;33.87;94434.53;10298931;28;1977;-84
2021/05/16 15:30:27;;;;;;;;;;;19.90;60.60;;;18.06;33.94;94438.13;10291848;28;2056;-83
2021/05/16 15:35:30;;;;;;;;;;;19.30;60.80;;;17.71;34.51;94433.44;10313668;28;2122;-85
2021/05/16 15:40:36;;;;;;;;;;;18.90;61.30;;;17.25;35.57;94454.75;10293020;28;2056;-85
2021/05/16 15:45:41;;;;;;;;;;;18.50;61.90;;;17.10;37.25;94479.13;10291630;28;1994;-84
2021/05/16 15:50:43;;;;;;;;;;;18.20;63.60;;;16.67;37.25;94505.84;10292656;28;1741;-81
2021/05/16 15:55:46;;;;;;;;;;;17.90;63.60;;;16.66;37.25;94533.28;10289760;28;2125;-84
2021/05/16 16:00:49;;;;;;;;;;;17.70;64.20;;;16.27;38.14;94542.94;10288947;28;2336;-84
2021/05/16 16:05:51;;;;;;;;;;;17.40;65.10;;;15.66;39.06;94547.16;10295100;28;1933;-86
2021/05/16 16:10:53;;;;;;;;;;;16.90;65.60;;;15.58;40.61;94553.41;10301993;28;2121;-89
2021/05/16 16:15:56;;;;;;;;;;;16.70;67.60;;;15.36;42.49;94557.31;10323246;28;1398;-86
2021/05/16 16:20:58;;;;;;;;;;;16.50;69.40;;;15.24;43.13;94548.34;10300407;28;1892;-87
2021/05/16 16:26:00;;;;;;;;;;;16.30;70.50;;;15.10;45.44;94537.81;10305955;28;1270;-88
2021/05/16 16:31:03;;;;;;;;;;;16.20;72.50;;;14.71;48.03;94541.78;10305852;28;1450;-88
2021/05/16 16:36:06;;;;;;;;;;;16.00;75.10;;;14.29;52.31;94541.69;10308743;28;1678;-89
2021/05/16 16:41:09;;;;;;;;;;;15.60;79.70;;;14.00;52.63;94524.38;10308957;28;1890;-88
2021/05/16 16:46:12;;;;;;;;;;;15.30;80.30;;;13.85;51.40;94533.00;10295930;28;1717;-89
2021/05/16 16:51:14;;;;;;;;;;;15.00;79.70;;;13.69;50.39;94540.06;10311358;28;1685;-85
2021/05/16 16:56:20;;;;;;;;;;;14.80;78.50;;;13.71;49.60;94537.81;10293667;28;1214;-86
2021/05/16 17:01:23;;;;;;;;;;;14.80;78.40;;;13.59;50.32;94551.19;10302587;28;1991;-89
2021/05/16 17:06:25;;;;;;;;;;;14.70;78.80;;;13.55;50.46;94561.03;10315713;28;1338;-88
2021/05/16 17:11:28;;;;;;;;;;;14.70;79.60;;;13.31;57.19;94565.09;10309744;28;1602;-86
2021/05/16 17:16:30;;;;;;;;;;;14.50;84.80;;;12.43;63.76;94554.56;10326786;28;1237;-87
2021/05/16 17:21:32;;;;;;;;;;;14.00;92.10;;;11.80;71.22;94531.53;10327158;28;1984;-88
2021/05/16 17:26:35;;;;;;;;;;;13.30;99.60;;;11.50;75.19;94541.22;10294469;28;1513;-88
2021/05/16 17:31:37;;;;;;;;;;;12.80;99.90;;;11.16;76.70;94582.94;10310556;28;1643;-85
2021/05/16 17:36:40;;;;;;;;;;;12.50;99.90;;;11.01;78.47;94594.09;10291319;28;1431;-87
2021/05/16 17:41:43;;;;;;;;;;;12.20;99.90;;;10.79;78.64;94606.38;10320014;28;1899;-87
2021/05/16 17:46:46;;;;;;;;;;;12.00;99.90;;;10.80;83.93;94594.53;10302551;28;1595;-87
2021/05/16 17:51:49;;;;;;;;;;;11.90;99.90;;;10.69;84.16;94590.50;10288983;28;1367;-86
2021/05/16 17:56:51;;;;;;;;;;;11.80;99.90;;;10.61;85.83;94556.25;10294274;28;1623;-85
2021/05/16 18:01:53;;;;;;;;;;;11.70;99.90;;;10.52;85.49;94560.78;10314426;28;1914;-85
2021/05/16 18:06:56;;;;;;;;;;;11.60;99.90;;;10.53;86.39;94548.91;10308624;28;1528;-86
2021/05/16 18:12:00;;;;;;;;;;;11.60;99.90;;;10.44;86.97;94545.38;10288293;28;2152;-86
2021/05/16 18:17:03;;;;;;;;;;;11.60;99.90;;;10.41;86.29;94543.28;10266431;28;2116;-87
2021/05/16 18:22:06;;;;;;;;;;;11.50;99.90;;;10.32;86.14;94534.34;10293141;28;1962;-87
2021/05/16 18:27:11;;;;;;;;;;;11.40;99.90;;;10.31;86.89;94538.13;10277045;28;2107;-84
2021/05/16 18:32:14;;;;;;;;;;;11.40;99.90;;;10.25;87.46;94534.78;10304299;28;2154;-85
2021/05/16 18:37:18;;;;;;;;;;;11.30;99.90;;;10.23;86.50;94518.94;10277909;28;2096;-85
2021/05/16 18:42:20;;;;;;;;;;;11.30;99.90;;;10.10;86.41;94508.19;10284170;28;2389;-84
2021/05/16 18:47:23;;;;;;;;;;;11.30;99.90;;;9.95;87.65;94502.06;10286706;28;2134;-85
2021/05/16 18:52:25;;;;;;;;;;;11.10;99.90;;;9.93;86.75;94492.72;10278463;28;2131;-85
2021/05/16 18:57:28;;;;;;;;;;;11.10;99.90;;;9.88;87.88;94490.13;10274551;28;2372;-85
2021/05/16 19:02:30;;;;;;;;;;;10.90;99.90;;;9.87;88.81;94488.56;10316026;28;1882;-84
2021/05/16 19:07:33;;;;;;;;;;;10.90;99.90;;;9.73;88.72;94492.03;10330158;28;1621;-85
2021/05/16 19:12:35;;;;;;;;;;;10.80;99.90;;;9.60;88.83;94489.34;10335156;28;2096;-86
2021/05/16 19:17:38;;;;;;;;;;;10.70;99.90;;;9.56;88.97;94488.38;10286961;28;2081;-83
2021/05/16 19:22:41;;;;;;;;;;;10.60;99.90;;;9.51;89.22;94488.47;10279924;28;2084;-85
2021/05/16 19:27:43;;;;;;;;;;;10.60;99.90;;;9.43;89.30;94489.94;10282468;28;2055;-82
2021/05/16 19:32:46;;;;;;;;;;;10.50;99.90;;;9.42;88.82;94497.19;10282706;28;2305;-85
2021/05/16 19:37:48;;;;;;;;;;;10.50;99.90;;;9.43;89.11;94490.75;10294047;28;2112;-83
2021/05/16 19:42:51;;;;;;;;;;;10.50;99.90;;;9.47;88.71;94491.72;10262232;28;2148;-82
2021/05/16 19:47:53;;;;;;;;;;;10.50;99.90;;;9.49;87.94;94502.19;10277017;28;1972;-83
2021/05/16 19:52:56;;;;;;;;;;;10.50;99.90;;;9.53;87.06;94502.34;10305826;28;2160;-83
2021/05/16 19:58:00;;;;;;;;;;;10.50;99.90;;;9.50;87.63;94503.75;10273566;28;2306;-84
2021/05/16 20:03:03;;;;;;;;;;;10.50;99.90;;;9.50;87.54;94509.13;10283811;28;2257;-83
2021/05/16 20:08:06;;;;;;;;;;;10.60;99.90;;;9.51;86.67;94505.34;10295442;28;2205;-83
2021/05/16 20:13:08;;;;;;;;;;;10.50;99.90;;;9.49;86.79;94510.22;10288944;28;2147;-83
2021/05/16 20:18:11;;;;;;;;;;;10.50;99.90;;;9.51;86.80;94508.03;10296726;28;2145;-85
2021/05/16 20:23:14;;;;;;;;;;;10.50;99.90;;;9.51;86.24;94509.91;10304240;28;2344;-85
2021/05/16 20:28:16;;;;;;;;;;;10.50;99.90;;;9.46;85.33;94500.88;10318237;28;2245;-85
2021/05/16 20:33:19;;;;;;;;;;;10.50;99.90;;;9.38;85.52;94508.81;10303098;28;2126;-83
2021/05/16 20:38:22;;;;;;;;;;;10.50;99.90;;;9.34;85.49;94505.91;10300870;28;2120;-84
2021/05/16 20:43:25;;;;;;;;;;;10.40;99.90;;;9.27;85.36;94494.00;10311335;28;2074;-84
2021/05/16 20:48:34;;;;;;;;;;;10.30;99.90;;;9.17;85.41;94489.63;10311406;28;1705;-85
2021/05/16 20:53:37;;;;;;;;;;;10.30;99.90;;;9.12;86.69;94498.53;10307121;28;2039;-82
2021/05/16 20:58:43;;;;;;;;;;;10.20;99.90;;;9.16;86.08;94507.59;10308712;28;1974;-85
2021/05/16 21:03:46;;;;;;;;;;;10.20;99.90;;;9.28;85.72;94525.06;10290686;28;2052;-84
2021/05/16 21:08:48;;;;;;;;;;;10.20;99.90;;;9.40;84.30;94538.81;10305612;28;2180;-84
2021/05/16 21:13:53;;;;;;;;;;;10.30;99.90;;;9.50;83.64;94538.63;10308017;28;2014;-84
2021/05/16 21:18:57;;;;;;;;;;;10.40;99.90;;;9.54;82.79;94534.25;10306403;28;2053;-85
2021/05/16 21:23:59;;;;;;;;;;;10.50;99.90;;;9.61;82.73;94540.03;10291396;28;1958;-84
2021/05/16 21:29:02;;;;;;;;;;;10.50;99.90;;;9.66;82.46;94558.69;10302903;28;2242;-83
2021/05/16 21:34:08;;;;;;;;;;;10.60;99.90;;;9.59;84.29;94579.75;10313659;28;2109;-85
2021/05/16 21:39:11;;;;;;;;;;;10.60;99.90;;;9.46;86.78;94591.28;10308425;28;1986;-84
2021/05/16 21:44:17;;;;;;;;;;;10.60;99.90;;;9.39;88.12;94606.94;10309402;28;2073;-83
2021/05/16 21:49:22;;;;;;;;;;;10.50;99.90;;;9.26;89.14;94596.97;10291943;28;2015;-83
2021/05/16 21:54:27;;;;;;;;;;;10.30;99.90;;;9.21;89.87;94617.41;10315414;28;2025;-84
2021/05/16 21:59:30;;;;;;;;;;;10.30;99.90;;;9.17;91.21;94616.44;10298730;28;2043;-82
2021/05/16 22:04:33;;;;;;;;;;;10.20;99.90;;;9.09;91.21;94608.22;10291087;28;1960;-83
2021/05/16 22:09:38;;;;;;;;;;;10.20;99.90;;;9.06;92.31;94614.19;10307408;28;1831;-83
2021/05/16 22:14:40;;;;;;;;;;;10.10;99.90;;;9.09;92.68;94619.75;10312798;28;1833;-84
2021/05/16 22:19:43;;;;;;;;;;;10.10;99.90;;;9.07;91.85;94624.63;10311384;28;1914;-85
2021/05/16 22:24:46;;;;;;;;;;;10.10;99.90;;;9.02;91.94;94631.94;10296067;28;1968;-83
2021/05/16 22:29:49;;;;;;;;;;;10.00;99.90;;;9.02;91.70;94643.47;10315512;28;1966;-84
2021/05/16 22:34:52;;;;;;;;;;;10.00;99.90;;;9.04;93.18;94629.78;10311954;28;1809;-84
2021/05/16 22:39:55;;;;;;;;;;;10.00;99.90;;;8.96;93.61;94622.38;10298172;28;2077;-83
2021/05/16 22:45:00;;;;;;;;;;;10.00;99.90;;;8.92;93.64;94617.63;10292904;28;2069;-85
2021/05/16 22:50:14;;;;;;;;;;;9.90;99.90;;;8.89;94.91;94622.75;10302354;28;2069;-84
2021/05/16 22:55:17;;;;;;;;;;;9.90;99.90;;;8.88;94.07;94623.84;10299469;28;1876;-84
2021/05/16 23:00:20;;;;;;;;;;;10.60;99.90;;;8.89;93.66;94614.72;10292170;28;1880;-85
2021/05/16 23:05:23;;;;;;;;;;;9.80;99.90;;;8.87;93.52;94612.31;10313721;28;1991;-84
2021/05/16 23:10:26;;;;;;;;;;;10.00;99.90;;;8.92;93.33;94595.38;10312272;28;2089;-85
2021/05/16 23:15:29;;;;;;;;;;;9.90;99.90;;;8.96;92.53;94582.97;10303032;28;1903;-83
2021/05/16 23:20:34;;;;;;;;;;;10.60;99.90;;;8.96;92.27;94577.59;10304914;28;1970;-84
2021/05/16 23:25:37;;;;;;;;;;;9.90;99.90;;;8.99;91.53;94593.13;10300259;28;1914;-85